sensor_id;sensor_type;location;lat;lon;timestamp;P1;durP1;ratioP1;P2;durP2;ratioP2
33150;SDS011;19508;42.578;23.416;2024-01-11T00:00:13;41.67;;;15.18;;
33150;SDS011;19508;42.578;23.416;2024-01-11T00:02:39;38.15;;;14.15;;
33150;SDS011;19508;42.578;23.416;2024-01-11T00:05:05;30.48;;;12.88;;
33150;SDS011;19508;42.578;23.416;2024-01-11T00:07:31;25.02;;;12.55;;
33150;SDS011;19508;42.578;23.416;2024-01-11T00:09:57;28.75;;;13.77;;
33150;SDS011;19508;42.578;23.416;2024-01-11T00:12:22;54.75;;;17.48;;
33150;SDS011;19508;42.578;23.416;2024-01-11T00:14:48;48.88;;;14.73;;
33150;SDS011;19508;42.578;23.416;2024-01-11T00:17:13;90.32;;;24.70;;
33150;SDS011;19508;42.578;23.416;2024-01-11T00:19:39;74.88;;;24.40;;
33150;SDS011;19508;42.578;23.416;2024-01-11T00:22:04;29.55;;;12.75;;
33150;SDS011;19508;42.578;23.416;2024-01-11T00:24:31;57.58;;;15.00;;
33150;SDS011;19508;42.578;23.416;2024-01-11T00:26:56;40.65;;;12.35;;
33150;SDS011;19508;42.578;23.416;2024-01-11T00:29:21;32.55;;;12.80;;
33150;SDS011;19508;42.578;23.416;2024-01-11T00:31:47;34.20;;;12.88;;
33150;SDS011;19508;42.578;23.416;2024-01-11T00:34:12;142.07;;;35.85;;
33150;SDS011;19508;42.578;23.416;2024-01-11T00:36:38;96.38;;;28.25;;
33150;SDS011;19508;42.578;23.416;2024-01-11T00:39:03;74.35;;;23.27;;
33150;SDS011;19508;42.578;23.416;2024-01-11T00:41:28;62.80;;;19.98;;
33150;SDS011;19508;42.578;23.416;2024-01-11T00:43:54;60.50;;;17.88;;
33150;SDS011;19508;42.578;23.416;2024-01-11T00:46:19;34.88;;;13.02;;
33150;SDS011;19508;42.578;23.416;2024-01-11T00:48:45;29.48;;;9.90;;
33150;SDS011;19508;42.578;23.416;2024-01-11T00:51:10;27.83;;;10.68;;
33150;SDS011;19508;42.578;23.416;2024-01-11T00:53:36;34.75;;;14.00;;
33150;SDS011;19508;42.578;23.416;2024-01-11T00:56:01;21.27;;;8.63;;
33150;SDS011;19508;42.578;23.416;2024-01-11T00:58:27;23.92;;;9.95;;
33150;SDS011;19508;42.578;23.416;2024-01-11T01:00:53;24.58;;;10.50;;
33150;SDS011;19508;42.578;23.416;2024-01-11T01:03:19;24.05;;;8.93;;
33150;SDS011;19508;42.578;23.416;2024-01-11T01:05:45;26.67;;;9.65;;
33150;SDS011;19508;42.578;23.416;2024-01-11T01:08:14;28.13;;;10.43;;
33150;SDS011;19508;42.578;23.416;2024-01-11T01:10:39;32.90;;;12.10;;
33150;SDS011;19508;42.578;23.416;2024-01-11T01:13:05;53.20;;;17.83;;
33150;SDS011;19508;42.578;23.416;2024-01-11T01:15:31;51.15;;;14.52;;
33150;SDS011;19508;42.578;23.416;2024-01-11T01:17:57;35.55;;;16.27;;
33150;SDS011;19508;42.578;23.416;2024-01-11T01:20:23;30.52;;;14.13;;
33150;SDS011;19508;42.578;23.416;2024-01-11T01:22:49;46.13;;;17.50;;
33150;SDS011;19508;42.578;23.416;2024-01-11T01:25:14;25.20;;;11.48;;
33150;SDS011;19508;42.578;23.416;2024-01-11T01:27:40;21.25;;;10.52;;
33150;SDS011;19508;42.578;23.416;2024-01-11T01:30:05;47.25;;;18.98;;
33150;SDS011;19508;42.578;23.416;2024-01-11T01:32:31;47.28;;;19.08;;
33150;SDS011;19508;42.578;23.416;2024-01-11T01:34:57;50.65;;;20.25;;
33150;SDS011;19508;42.578;23.416;2024-01-11T01:37:23;43.40;;;17.30;;
33150;SDS011;19508;42.578;23.416;2024-01-11T01:39:48;35.13;;;14.10;;
33150;SDS011;19508;42.578;23.416;2024-01-11T01:42:13;27.88;;;12.70;;
33150;SDS011;19508;42.578;23.416;2024-01-11T01:44:39;28.35;;;12.63;;
33150;SDS011;19508;42.578;23.416;2024-01-11T01:47:06;31.42;;;14.10;;
33150;SDS011;19508;42.578;23.416;2024-01-11T01:49:34;28.80;;;11.60;;
33150;SDS011;19508;42.578;23.416;2024-01-11T01:52:01;30.17;;;11.82;;
33150;SDS011;19508;42.578;23.416;2024-01-11T01:54:28;21.25;;;9.10;;
33150;SDS011;19508;42.578;23.416;2024-01-11T01:56:54;27.63;;;13.13;;
33150;SDS011;19508;42.578;23.416;2024-01-11T01:59:21;43.83;;;14.85;;
33150;SDS011;19508;42.578;23.416;2024-01-11T02:01:47;45.33;;;17.77;;
33150;SDS011;19508;42.578;23.416;2024-01-11T02:04:13;35.13;;;16.63;;
33150;SDS011;19508;42.578;23.416;2024-01-11T02:06:40;49.45;;;16.75;;
33150;SDS011;19508;42.578;23.416;2024-01-11T02:09:06;35.17;;;14.07;;
33150;SDS011;19508;42.578;23.416;2024-01-11T02:11:33;37.63;;;15.75;;
33150;SDS011;19508;42.578;23.416;2024-01-11T02:13:59;40.72;;;14.98;;
33150;SDS011;19508;42.578;23.416;2024-01-11T02:16:24;36.22;;;14.75;;
33150;SDS011;19508;42.578;23.416;2024-01-11T02:18:53;31.40;;;12.35;;
33150;SDS011;19508;42.578;23.416;2024-01-11T02:21:18;31.88;;;12.38;;
33150;SDS011;19508;42.578;23.416;2024-01-11T02:29:38;25.73;;;10.48;;
33150;SDS011;19508;42.578;23.416;2024-01-11T02:32:03;25.15;;;8.90;;
33150;SDS011;19508;42.578;23.416;2024-01-11T02:34:31;22.52;;;10.38;;
33150;SDS011;19508;42.578;23.416;2024-01-11T02:36:56;26.00;;;10.18;;
33150;SDS011;19508;42.578;23.416;2024-01-11T02:39:22;27.60;;;10.60;;
33150;SDS011;19508;42.578;23.416;2024-01-11T02:41:49;21.70;;;10.52;;
33150;SDS011;19508;42.578;23.416;2024-01-11T02:44:16;30.13;;;11.80;;
33150;SDS011;19508;42.578;23.416;2024-01-11T02:46:41;25.95;;;11.60;;
33150;SDS011;19508;42.578;23.416;2024-01-11T02:49:07;29.83;;;11.50;;
33150;SDS011;19508;42.578;23.416;2024-01-11T02:51:32;26.92;;;9.63;;
33150;SDS011;19508;42.578;23.416;2024-01-11T02:53:58;21.13;;;10.48;;
33150;SDS011;19508;42.578;23.416;2024-01-11T02:56:24;25.30;;;11.40;;
33150;SDS011;19508;42.578;23.416;2024-01-11T02:58:49;23.85;;;9.98;;
33150;SDS011;19508;42.578;23.416;2024-01-11T03:01:14;24.65;;;10.43;;
33150;SDS011;19508;42.578;23.416;2024-01-11T03:03:40;32.13;;;11.52;;
33150;SDS011;19508;42.578;23.416;2024-01-11T03:06:05;55.22;;;15.80;;
33150;SDS011;19508;42.578;23.416;2024-01-11T03:08:31;37.47;;;14.75;;
33150;SDS011;19508;42.578;23.416;2024-01-11T03:10:56;118.30;;;32.70;;
33150;SDS011;19508;42.578;23.416;2024-01-11T03:13:22;54.05;;;21.27;;
33150;SDS011;19508;42.578;23.416;2024-01-11T03:15:48;56.67;;;19.17;;
33150;SDS011;19508;42.578;23.416;2024-01-11T03:18:14;54.22;;;15.32;;
33150;SDS011;19508;42.578;23.416;2024-01-11T03:20:39;53.35;;;18.25;;
33150;SDS011;19508;42.578;23.416;2024-01-11T03:23:05;47.90;;;18.55;;
33150;SDS011;19508;42.578;23.416;2024-01-11T03:25:30;36.53;;;14.75;;
33150;SDS011;19508;42.578;23.416;2024-01-11T03:27:56;32.25;;;13.48;;
33150;SDS011;19508;42.578;23.416;2024-01-11T03:30:23;26.38;;;13.15;;
33150;SDS011;19508;42.578;23.416;2024-01-11T03:32:49;30.63;;;12.95;;
33150;SDS011;19508;42.578;23.416;2024-01-11T03:35:14;23.73;;;11.85;;
33150;SDS011;19508;42.578;23.416;2024-01-11T03:37:40;26.45;;;12.68;;
33150;SDS011;19508;42.578;23.416;2024-01-11T03:40:05;25.92;;;11.13;;
33150;SDS011;19508;42.578;23.416;2024-01-11T03:42:31;30.25;;;13.02;;
33150;SDS011;19508;42.578;23.416;2024-01-11T03:44:56;24.20;;;10.43;;
33150;SDS011;19508;42.578;23.416;2024-01-11T03:47:22;20.58;;;9.80;;
33150;SDS011;19508;42.578;23.416;2024-01-11T03:49:47;29.23;;;11.63;;
33150;SDS011;19508;42.578;23.416;2024-01-11T03:52:13;25.73;;;11.65;;
33150;SDS011;19508;42.578;23.416;2024-01-11T03:54:38;24.67;;;10.05;;
33150;SDS011;19508;42.578;23.416;2024-01-11T03:57:04;16.58;;;8.60;;
33150;SDS011;19508;42.578;23.416;2024-01-11T03:59:29;23.45;;;9.63;;
33150;SDS011;19508;42.578;23.416;2024-01-11T04:01:55;22.88;;;8.18;;
33150;SDS011;19508;42.578;23.416;2024-01-11T04:04:21;18.73;;;8.15;;
33150;SDS011;19508;42.578;23.416;2024-01-11T04:06:47;25.05;;;12.23;;
33150;SDS011;19508;42.578;23.416;2024-01-11T04:09:13;25.90;;;12.20;;
33150;SDS011;19508;42.578;23.416;2024-01-11T04:11:38;30.13;;;11.95;;
33150;SDS011;19508;42.578;23.416;2024-01-11T04:14:04;28.52;;;12.25;;
33150;SDS011;19508;42.578;23.416;2024-01-11T04:16:30;53.10;;;18.73;;
33150;SDS011;19508;42.578;23.416;2024-01-11T04:18:55;46.65;;;14.93;;
33150;SDS011;19508;42.578;23.416;2024-01-11T04:21:21;45.83;;;17.10;;
33150;SDS011;19508;42.578;23.416;2024-01-11T04:23:47;25.02;;;12.02;;
33150;SDS011;19508;42.578;23.416;2024-01-11T04:26:13;35.30;;;12.43;;
33150;SDS011;19508;42.578;23.416;2024-01-11T04:28:38;30.25;;;13.00;;
33150;SDS011;19508;42.578;23.416;2024-01-11T04:31:04;27.10;;;12.07;;
33150;SDS011;19508;42.578;23.416;2024-01-11T04:33:29;44.30;;;12.70;;
33150;SDS011;19508;42.578;23.416;2024-01-11T04:35:55;34.92;;;14.75;;
33150;SDS011;19508;42.578;23.416;2024-01-11T04:38:20;44.47;;;14.90;;
33150;SDS011;19508;42.578;23.416;2024-01-11T04:40:45;45.28;;;13.38;;
33150;SDS011;19508;42.578;23.416;2024-01-11T04:43:17;37.13;;;13.55;;
33150;SDS011;19508;42.578;23.416;2024-01-11T04:45:44;29.55;;;14.27;;
33150;SDS011;19508;42.578;23.416;2024-01-11T04:48:09;32.55;;;14.15;;
33150;SDS011;19508;42.578;23.416;2024-01-11T04:50:34;28.88;;;12.45;;
33150;SDS011;19508;42.578;23.416;2024-01-11T04:53:00;27.85;;;12.50;;
33150;SDS011;19508;42.578;23.416;2024-01-11T04:55:25;28.85;;;11.00;;
33150;SDS011;19508;42.578;23.416;2024-01-11T04:57:51;34.33;;;11.38;;
33150;SDS011;19508;42.578;23.416;2024-01-11T05:00:16;19.40;;;9.65;;
33150;SDS011;19508;42.578;23.416;2024-01-11T05:02:42;25.67;;;12.23;;
33150;SDS011;19508;42.578;23.416;2024-01-11T05:05:07;27.25;;;11.52;;
33150;SDS011;19508;42.578;23.416;2024-01-11T05:07:33;24.83;;;10.82;;
33150;SDS011;19508;42.578;23.416;2024-01-11T05:09:59;26.20;;;10.65;;
33150;SDS011;19508;42.578;23.416;2024-01-11T05:12:25;23.85;;;9.40;;
33150;SDS011;19508;42.578;23.416;2024-01-11T05:14:50;23.60;;;9.23;;
33150;SDS011;19508;42.578;23.416;2024-01-11T05:17:15;19.52;;;9.77;;
33150;SDS011;19508;42.578;23.416;2024-01-11T05:19:41;21.20;;;10.20;;
33150;SDS011;19508;42.578;23.416;2024-01-11T05:22:06;14.77;;;7.55;;
33150;SDS011;19508;42.578;23.416;2024-01-11T05:24:32;20.40;;;7.57;;
33150;SDS011;19508;42.578;23.416;2024-01-11T05:26:58;26.58;;;10.20;;
33150;SDS011;19508;42.578;23.416;2024-01-11T05:29:24;23.50;;;10.50;;
33150;SDS011;19508;42.578;23.416;2024-01-11T05:31:49;29.80;;;12.23;;
33150;SDS011;19508;42.578;23.416;2024-01-11T05:34:15;33.85;;;14.13;;
33150;SDS011;19508;42.578;23.416;2024-01-11T05:36:40;32.03;;;12.82;;
33150;SDS011;19508;42.578;23.416;2024-01-11T05:39:06;34.35;;;12.60;;
33150;SDS011;19508;42.578;23.416;2024-01-11T05:41:31;26.25;;;11.02;;
33150;SDS011;19508;42.578;23.416;2024-01-11T05:43:56;28.90;;;10.77;;
33150;SDS011;19508;42.578;23.416;2024-01-11T05:46:22;30.98;;;12.10;;
33150;SDS011;19508;42.578;23.416;2024-01-11T05:48:47;29.92;;;13.05;;
33150;SDS011;19508;42.578;23.416;2024-01-11T05:51:13;23.77;;;10.63;;
33150;SDS011;19508;42.578;23.416;2024-01-11T05:53:38;30.60;;;12.25;;
33150;SDS011;19508;42.578;23.416;2024-01-11T05:56:07;42.90;;;14.68;;
33150;SDS011;19508;42.578;23.416;2024-01-11T05:58:34;21.83;;;10.23;;
33150;SDS011;19508;42.578;23.416;2024-01-11T06:00:59;49.35;;;17.83;;
33150;SDS011;19508;42.578;23.416;2024-01-11T06:03:25;55.20;;;19.02;;
33150;SDS011;19508;42.578;23.416;2024-01-11T06:05:50;36.58;;;17.02;;
33150;SDS011;19508;42.578;23.416;2024-01-11T06:08:15;42.20;;;15.80;;
33150;SDS011;19508;42.578;23.416;2024-01-11T06:10:42;30.27;;;14.40;;
33150;SDS011;19508;42.578;23.416;2024-01-11T06:13:07;31.38;;;12.68;;
33150;SDS011;19508;42.578;23.416;2024-01-11T06:15:33;31.40;;;14.18;;
33150;SDS011;19508;42.578;23.416;2024-01-11T06:17:59;38.28;;;13.00;;
33150;SDS011;19508;42.578;23.416;2024-01-11T06:20:25;28.67;;;11.52;;
33150;SDS011;19508;42.578;23.416;2024-01-11T06:22:50;32.65;;;12.32;;
33150;SDS011;19508;42.578;23.416;2024-01-11T06:25:16;32.15;;;10.35;;
33150;SDS011;19508;42.578;23.416;2024-01-11T06:27:42;43.65;;;16.65;;
33150;SDS011;19508;42.578;23.416;2024-01-11T06:30:08;43.78;;;16.45;;
33150;SDS011;19508;42.578;23.416;2024-01-11T06:32:34;68.60;;;24.00;;
33150;SDS011;19508;42.578;23.416;2024-01-11T06:34:59;69.18;;;26.70;;
33150;SDS011;19508;42.578;23.416;2024-01-11T06:37:25;78.65;;;22.23;;
33150;SDS011;19508;42.578;23.416;2024-01-11T06:39:50;43.67;;;19.50;;
33150;SDS011;19508;42.578;23.416;2024-01-11T06:42:16;91.78;;;31.92;;
33150;SDS011;19508;42.578;23.416;2024-01-11T06:44:41;66.90;;;27.02;;
33150;SDS011;19508;42.578;23.416;2024-01-11T06:47:07;48.42;;;19.67;;
33150;SDS011;19508;42.578;23.416;2024-01-11T06:49:33;55.78;;;23.40;;
33150;SDS011;19508;42.578;23.416;2024-01-11T06:51:58;80.15;;;28.40;;
33150;SDS011;19508;42.578;23.416;2024-01-11T06:54:24;71.00;;;28.42;;
33150;SDS011;19508;42.578;23.416;2024-01-11T06:56:49;38.85;;;19.40;;
33150;SDS011;19508;42.578;23.416;2024-01-11T06:59:15;38.50;;;15.80;;
33150;SDS011;19508;42.578;23.416;2024-01-11T07:01:40;41.97;;;15.80;;
33150;SDS011;19508;42.578;23.416;2024-01-11T07:04:05;35.30;;;16.35;;
33150;SDS011;19508;42.578;23.416;2024-01-11T07:06:31;34.25;;;14.50;;
33150;SDS011;19508;42.578;23.416;2024-01-11T07:08:56;44.47;;;17.75;;
33150;SDS011;19508;42.578;23.416;2024-01-11T07:11:22;51.80;;;19.08;;
33150;SDS011;19508;42.578;23.416;2024-01-11T07:13:47;40.35;;;17.05;;
33150;SDS011;19508;42.578;23.416;2024-01-11T07:16:13;41.92;;;17.85;;
33150;SDS011;19508;42.578;23.416;2024-01-11T07:18:38;42.05;;;17.65;;
33150;SDS011;19508;42.578;23.416;2024-01-11T07:21:03;40.22;;;14.93;;
33150;SDS011;19508;42.578;23.416;2024-01-11T07:23:29;41.28;;;17.63;;
33150;SDS011;19508;42.578;23.416;2024-01-11T07:25:54;39.95;;;16.33;;
33150;SDS011;19508;42.578;23.416;2024-01-11T07:28:20;34.17;;;13.60;;
33150;SDS011;19508;42.578;23.416;2024-01-11T07:30:50;29.30;;;11.70;;
33150;SDS011;19508;42.578;23.416;2024-01-11T07:33:15;32.90;;;10.77;;
33150;SDS011;19508;42.578;23.416;2024-01-11T07:35:41;20.55;;;10.10;;
33150;SDS011;19508;42.578;23.416;2024-01-11T07:38:06;25.33;;;10.02;;
33150;SDS011;19508;42.578;23.416;2024-01-11T07:40:32;21.73;;;9.02;;
33150;SDS011;19508;42.578;23.416;2024-01-11T07:42:57;26.33;;;9.20;;
33150;SDS011;19508;42.578;23.416;2024-01-11T07:45:23;27.13;;;10.55;;
33150;SDS011;19508;42.578;23.416;2024-01-11T07:47:48;19.50;;;8.77;;
33150;SDS011;19508;42.578;23.416;2024-01-11T07:50:14;20.20;;;8.70;;
33150;SDS011;19508;42.578;23.416;2024-01-11T07:52:39;27.75;;;12.48;;
33150;SDS011;19508;42.578;23.416;2024-01-11T07:55:06;27.98;;;9.98;;
33150;SDS011;19508;42.578;23.416;2024-01-11T07:57:33;34.28;;;11.23;;
33150;SDS011;19508;42.578;23.416;2024-01-11T07:59:59;32.78;;;11.70;;
33150;SDS011;19508;42.578;23.416;2024-01-11T08:02:24;33.22;;;11.38;;
33150;SDS011;19508;42.578;23.416;2024-01-11T08:04:50;27.48;;;11.70;;
33150;SDS011;19508;42.578;23.416;2024-01-11T08:07:15;27.67;;;12.05;;
33150;SDS011;19508;42.578;23.416;2024-01-11T08:09:41;33.78;;;12.85;;
33150;SDS011;19508;42.578;23.416;2024-01-11T08:12:10;66.38;;;19.77;;
33150;SDS011;19508;42.578;23.416;2024-01-11T08:14:38;45.20;;;15.73;;
33150;SDS011;19508;42.578;23.416;2024-01-11T08:17:04;42.58;;;13.52;;
33150;SDS011;19508;42.578;23.416;2024-01-11T08:19:30;32.08;;;13.27;;
33150;SDS011;19508;42.578;23.416;2024-01-11T08:21:56;25.13;;;11.15;;
33150;SDS011;19508;42.578;23.416;2024-01-11T08:24:21;25.55;;;11.48;;
33150;SDS011;19508;42.578;23.416;2024-01-11T08:26:47;29.08;;;11.48;;
33150;SDS011;19508;42.578;23.416;2024-01-11T08:29:13;26.27;;;11.63;;
33150;SDS011;19508;42.578;23.416;2024-01-11T08:31:38;33.63;;;13.75;;
33150;SDS011;19508;42.578;23.416;2024-01-11T08:34:04;34.05;;;14.90;;
33150;SDS011;19508;42.578;23.416;2024-01-11T08:36:32;36.75;;;14.88;;
33150;SDS011;19508;42.578;23.416;2024-01-11T08:39:01;33.60;;;12.73;;
33150;SDS011;19508;42.578;23.416;2024-01-11T08:41:30;28.73;;;13.32;;
33150;SDS011;19508;42.578;23.416;2024-01-11T08:43:55;39.47;;;14.27;;
33150;SDS011;19508;42.578;23.416;2024-01-11T08:46:24;46.13;;;16.05;;
33150;SDS011;19508;42.578;23.416;2024-01-11T08:48:52;43.78;;;16.65;;
33150;SDS011;19508;42.578;23.416;2024-01-11T08:51:18;38.75;;;16.15;;
33150;SDS011;19508;42.578;23.416;2024-01-11T08:53:44;37.00;;;16.10;;
33150;SDS011;19508;42.578;23.416;2024-01-11T08:56:09;32.15;;;15.30;;
33150;SDS011;19508;42.578;23.416;2024-01-11T08:58:35;48.92;;;18.70;;
33150;SDS011;19508;42.578;23.416;2024-01-11T09:01:01;65.68;;;20.27;;
33150;SDS011;19508;42.578;23.416;2024-01-11T09:03:27;54.17;;;21.38;;
33150;SDS011;19508;42.578;23.416;2024-01-11T09:05:53;65.97;;;22.65;;
33150;SDS011;19508;42.578;23.416;2024-01-11T09:08:22;56.67;;;22.70;;
33150;SDS011;19508;42.578;23.416;2024-01-11T09:10:47;67.80;;;29.27;;
33150;SDS011;19508;42.578;23.416;2024-01-11T09:13:13;57.90;;;23.88;;
33150;SDS011;19508;42.578;23.416;2024-01-11T09:15:40;63.35;;;22.48;;
33150;SDS011;19508;42.578;23.416;2024-01-11T09:18:06;31.38;;;12.18;;
33150;SDS011;19508;42.578;23.416;2024-01-11T09:20:31;34.80;;;15.68;;
33150;SDS011;19508;42.578;23.416;2024-01-11T09:22:56;33.60;;;13.38;;
33150;SDS011;19508;42.578;23.416;2024-01-11T09:25:22;36.10;;;10.45;;
33150;SDS011;19508;42.578;23.416;2024-01-11T09:27:48;34.45;;;13.93;;
33150;SDS011;19508;42.578;23.416;2024-01-11T09:30:14;36.78;;;13.57;;
33150;SDS011;19508;42.578;23.416;2024-01-11T09:32:40;31.20;;;12.65;;
33150;SDS011;19508;42.578;23.416;2024-01-11T09:35:05;42.72;;;15.55;;
33150;SDS011;19508;42.578;23.416;2024-01-11T09:37:31;36.70;;;15.85;;
33150;SDS011;19508;42.578;23.416;2024-01-11T09:39:57;43.05;;;17.20;;
33150;SDS011;19508;42.578;23.416;2024-01-11T09:42:22;45.63;;;17.83;;
33150;SDS011;19508;42.578;23.416;2024-01-11T09:44:48;46.88;;;17.13;;
33150;SDS011;19508;42.578;23.416;2024-01-11T09:47:13;35.33;;;13.43;;
33150;SDS011;19508;42.578;23.416;2024-01-11T09:49:42;30.67;;;12.45;;
33150;SDS011;19508;42.578;23.416;2024-01-11T09:52:09;26.13;;;10.38;;
33150;SDS011;19508;42.578;23.416;2024-01-11T09:54:38;21.52;;;10.18;;
33150;SDS011;19508;42.578;23.416;2024-01-11T09:57:05;29.67;;;11.80;;
33150;SDS011;19508;42.578;23.416;2024-01-11T09:59:34;35.80;;;12.73;;
33150;SDS011;19508;42.578;23.416;2024-01-11T10:02:01;37.30;;;13.23;;
33150;SDS011;19508;42.578;23.416;2024-01-11T10:04:27;36.00;;;15.20;;
33150;SDS011;19508;42.578;23.416;2024-01-11T10:06:53;35.95;;;14.05;;
33150;SDS011;19508;42.578;23.416;2024-01-11T10:09:20;32.13;;;13.82;;
33150;SDS011;19508;42.578;23.416;2024-01-11T10:11:45;28.08;;;13.20;;
33150;SDS011;19508;42.578;23.416;2024-01-11T10:14:12;33.00;;;14.63;;
33150;SDS011;19508;42.578;23.416;2024-01-11T10:16:38;36.67;;;14.80;;
33150;SDS011;19508;42.578;23.416;2024-01-11T10:19:03;33.78;;;16.20;;
33150;SDS011;19508;42.578;23.416;2024-01-11T10:21:29;34.20;;;16.10;;
33150;SDS011;19508;42.578;23.416;2024-01-11T10:23:55;43.15;;;18.05;;
33150;SDS011;19508;42.578;23.416;2024-01-11T10:26:22;35.90;;;15.02;;
33150;SDS011;19508;42.578;23.416;2024-01-11T10:28:48;33.35;;;14.45;;
33150;SDS011;19508;42.578;23.416;2024-01-11T10:31:13;31.88;;;13.65;;
33150;SDS011;19508;42.578;23.416;2024-01-11T10:33:40;30.90;;;13.52;;
33150;SDS011;19508;42.578;23.416;2024-01-11T10:36:06;40.47;;;16.75;;
33150;SDS011;19508;42.578;23.416;2024-01-11T10:38:38;42.03;;;17.30;;
33150;SDS011;19508;42.578;23.416;2024-01-11T10:41:05;38.90;;;17.40;;
33150;SDS011;19508;42.578;23.416;2024-01-11T10:43:32;51.97;;;20.27;;
33150;SDS011;19508;42.578;23.416;2024-01-11T10:46:00;56.83;;;19.88;;
33150;SDS011;19508;42.578;23.416;2024-01-11T10:48:31;49.22;;;23.02;;
33150;SDS011;19508;42.578;23.416;2024-01-11T10:51:02;50.90;;;22.35;;
33150;SDS011;19508;42.578;23.416;2024-01-11T10:56:14;57.25;;;23.10;;
33150;SDS011;19508;42.578;23.416;2024-01-11T10:58:44;58.33;;;25.08;;
33150;SDS011;19508;42.578;23.416;2024-01-11T11:01:10;53.92;;;21.77;;
33150;SDS011;19508;42.578;23.416;2024-01-11T11:03:37;45.63;;;20.13;;
33150;SDS011;19508;42.578;23.416;2024-01-11T11:06:04;65.97;;;24.95;;
33150;SDS011;19508;42.578;23.416;2024-01-11T11:08:31;59.45;;;25.95;;
33150;SDS011;19508;42.578;23.416;2024-01-11T11:10:57;64.13;;;25.00;;
33150;SDS011;19508;42.578;23.416;2024-01-11T11:13:24;68.78;;;26.75;;
33150;SDS011;19508;42.578;23.416;2024-01-11T11:15:50;63.92;;;27.63;;
33150;SDS011;19508;42.578;23.416;2024-01-11T11:18:17;69.18;;;28.27;;
33150;SDS011;19508;42.578;23.416;2024-01-11T11:20:43;69.20;;;27.20;;
33150;SDS011;19508;42.578;23.416;2024-01-11T11:23:11;54.72;;;21.65;;
33150;SDS011;19508;42.578;23.416;2024-01-11T11:25:41;69.32;;;29.02;;
33150;SDS011;19508;42.578;23.416;2024-01-11T11:28:07;66.68;;;28.73;;
33150;SDS011;19508;42.578;23.416;2024-01-11T11:30:33;76.25;;;28.33;;
33150;SDS011;19508;42.578;23.416;2024-01-11T11:35:47;72.00;;;28.25;;
33150;SDS011;19508;42.578;23.416;2024-01-11T11:38:22;64.47;;;28.52;;
33150;SDS011;19508;42.578;23.416;2024-01-11T11:40:50;68.53;;;28.17;;
33150;SDS011;19508;42.578;23.416;2024-01-11T11:43:17;63.30;;;27.30;;
33150;SDS011;19508;42.578;23.416;2024-01-11T11:45:43;73.25;;;28.88;;
33150;SDS011;19508;42.578;23.416;2024-01-11T11:48:53;62.95;;;27.55;;
33150;SDS011;19508;42.578;23.416;2024-01-11T11:53:35;61.80;;;28.25;;
33150;SDS011;19508;42.578;23.416;2024-01-11T11:56:04;74.25;;;27.95;;
33150;SDS011;19508;42.578;23.416;2024-01-11T11:58:31;74.15;;;26.77;;
33150;SDS011;19508;42.578;23.416;2024-01-11T12:00:58;73.45;;;30.65;;
33150;SDS011;19508;42.578;23.416;2024-01-11T12:03:31;67.65;;;28.10;;
33150;SDS011;19508;42.578;23.416;2024-01-11T12:05:58;62.80;;;30.17;;
33150;SDS011;19508;42.578;23.416;2024-01-11T12:08:25;71.30;;;27.40;;
33150;SDS011;19508;42.578;23.416;2024-01-11T12:10:51;66.18;;;26.00;;
33150;SDS011;19508;42.578;23.416;2024-01-11T12:13:20;60.90;;;25.85;;
33150;SDS011;19508;42.578;23.416;2024-01-11T12:15:45;63.72;;;27.50;;
33150;SDS011;19508;42.578;23.416;2024-01-11T12:18:11;63.85;;;25.52;;
33150;SDS011;19508;42.578;23.416;2024-01-11T12:20:36;77.28;;;25.90;;
33150;SDS011;19508;42.578;23.416;2024-01-11T12:23:02;65.68;;;27.60;;
33150;SDS011;19508;42.578;23.416;2024-01-11T12:25:28;62.63;;;28.45;;
33150;SDS011;19508;42.578;23.416;2024-01-11T12:27:53;66.97;;;27.35;;
33150;SDS011;19508;42.578;23.416;2024-01-11T12:30:23;64.65;;;26.23;;
33150;SDS011;19508;42.578;23.416;2024-01-11T12:32:49;80.28;;;29.92;;
33150;SDS011;19508;42.578;23.416;2024-01-11T12:35:15;68.88;;;29.58;;
33150;SDS011;19508;42.578;23.416;2024-01-11T12:37:51;75.88;;;29.90;;
33150;SDS011;19508;42.578;23.416;2024-01-11T12:40:20;64.07;;;28.85;;
33150;SDS011;19508;42.578;23.416;2024-01-11T12:42:49;80.30;;;30.83;;
33150;SDS011;19508;42.578;23.416;2024-01-11T12:45:15;74.80;;;29.70;;
33150;SDS011;19508;42.578;23.416;2024-01-11T12:47:42;89.95;;;29.70;;
33150;SDS011;19508;42.578;23.416;2024-01-11T12:50:08;72.43;;;29.35;;
33150;SDS011;19508;42.578;23.416;2024-01-11T12:52:34;69.43;;;29.88;;
33150;SDS011;19508;42.578;23.416;2024-01-11T12:54:59;77.45;;;29.23;;
33150;SDS011;19508;42.578;23.416;2024-01-11T12:57:25;69.10;;;29.70;;
33150;SDS011;19508;42.578;23.416;2024-01-11T12:59:51;65.60;;;26.55;;
33150;SDS011;19508;42.578;23.416;2024-01-11T13:02:17;72.88;;;28.30;;
33150;SDS011;19508;42.578;23.416;2024-01-11T13:04:43;70.57;;;28.10;;
33150;SDS011;19508;42.578;23.416;2024-01-11T13:07:11;79.00;;;30.42;;
33150;SDS011;19508;42.578;23.416;2024-01-11T13:09:38;73.53;;;29.65;;
33150;SDS011;19508;42.578;23.416;2024-01-11T13:12:04;87.13;;;34.90;;
33150;SDS011;19508;42.578;23.416;2024-01-11T13:14:30;80.82;;;30.05;;
33150;SDS011;19508;42.578;23.416;2024-01-11T13:16:57;74.13;;;30.42;;
33150;SDS011;19508;42.578;23.416;2024-01-11T13:19:22;79.60;;;29.17;;
33150;SDS011;19508;42.578;23.416;2024-01-11T13:21:48;75.45;;;30.42;;
33150;SDS011;19508;42.578;23.416;2024-01-11T13:24:13;75.25;;;31.40;;
33150;SDS011;19508;42.578;23.416;2024-01-11T13:26:39;65.93;;;28.90;;
33150;SDS011;19508;42.578;23.416;2024-01-11T13:29:05;74.43;;;30.15;;
33150;SDS011;19508;42.578;23.416;2024-01-11T13:31:32;78.93;;;30.08;;
33150;SDS011;19508;42.578;23.416;2024-01-11T13:33:57;87.35;;;30.05;;
33150;SDS011;19508;42.578;23.416;2024-01-11T13:36:23;74.65;;;29.60;;
33150;SDS011;19508;42.578;23.416;2024-01-11T13:38:48;72.20;;;29.25;;
33150;SDS011;19508;42.578;23.416;2024-01-11T13:41:15;80.95;;;29.92;;
33150;SDS011;19508;42.578;23.416;2024-01-11T13:43:42;63.13;;;26.50;;
33150;SDS011;19508;42.578;23.416;2024-01-11T13:46:07;80.18;;;29.83;;
33150;SDS011;19508;42.578;23.416;2024-01-11T13:48:34;71.55;;;30.15;;
33150;SDS011;19508;42.578;23.416;2024-01-11T13:51:00;80.70;;;31.30;;
33150;SDS011;19508;42.578;23.416;2024-01-11T13:53:28;109.15;;;42.40;;
33150;SDS011;19508;42.578;23.416;2024-01-11T13:55:53;109.95;;;40.50;;
33150;SDS011;19508;42.578;23.416;2024-01-11T13:58:19;107.88;;;37.20;;
33150;SDS011;19508;42.578;23.416;2024-01-11T14:00:44;78.07;;;31.73;;
33150;SDS011;19508;42.578;23.416;2024-01-11T14:03:09;68.78;;;29.33;;
33150;SDS011;19508;42.578;23.416;2024-01-11T14:05:36;73.18;;;27.50;;
33150;SDS011;19508;42.578;23.416;2024-01-11T14:08:02;85.85;;;30.20;;
33150;SDS011;19508;42.578;23.416;2024-01-11T14:10:30;79.75;;;29.15;;
33150;SDS011;19508;42.578;23.416;2024-01-11T14:12:57;83.82;;;28.90;;
33150;SDS011;19508;42.578;23.416;2024-01-11T14:15:27;82.80;;;31.55;;